Time;durP1;ratioP1;P1;durP2;ratioP2;P2;SDS_P1;SDS_P2;PMS_P1;PMS_P2;Temp;Humidity;BMP_temperature;BMP_pressure;BME280_temperature;BME280_humidity;BME280_pressure;Samples;Min_cycle;Max_cycle;Signal;HPM_P1;HPM_P2
2022/06/03 00:01:59;;;;;;;7.00;3.65;;;;;;;20.94;nan;-24399.28;5052860;28;20179;-56
2022/06/03 00:04:49;;;;;;;6.38;3.58;;;;;;;20.99;nan;-24400.66;5053533;28;20701;-56
2022/06/03 00:07:36;;;;;;;5.20;3.63;;;;;;;20.90;nan;-24398.03;5053538;28;20206;-56
2022/06/03 00:10:30;;;;;;;6.50;3.95;;;;;;;20.81;nan;-24395.53;5053433;28;20193;-57
2022/06/03 00:13:26;;;;;;;5.57;3.67;;;;;;;20.80;nan;-24395.25;5049861;28;20252;-57
2022/06/03 00:16:06;;;;;;;6.72;3.90;;;;;;;20.62;nan;-24390.53;5055100;28;20243;-57
2022/06/03 00:18:48;;;;;;;5.35;3.85;;;;;;;20.72;nan;-24393.31;5085179;28;20271;-57
2022/06/03 00:21:20;;;;;;;4.93;3.30;;;;;;;20.52;nan;-24387.63;5051732;28;20256;-57
2022/06/03 00:24:11;;;;;;;5.30;3.67;;;;;;;20.45;nan;-24385.69;5051470;28;20586;-57
2022/06/03 00:26:55;;;;;;;4.93;3.75;;;;;;;20.42;nan;-24385.00;5053400;28;20182;-57
2022/06/03 00:29:43;;;;;;;6.00;3.85;;;;;;;20.07;nan;-24375.41;5052952;28;20214;-56
2022/06/03 00:32:26;;;;;;;6.32;3.50;;;;;;;20.17;nan;-24378.19;5041687;28;20670;-56
2022/06/03 00:34:54;;;;;;;9.63;4.07;;;;;;;20.32;nan;-24382.06;5053096;28;20712;-57
2022/06/03 00:37:58;;;;;;;4.63;3.55;;;;;;;20.45;nan;-24385.81;5052958;28;20210;-57
2022/06/03 00:40:35;;;;;;;6.13;3.53;;;;;;;20.46;nan;-24386.09;5032803;28;20199;-57
2022/06/03 00:43:25;;;;;;;5.53;3.50;;;;;;;20.35;nan;-24383.03;5053221;28;20173;-58
2022/06/03 00:46:20;;;;;;;4.40;3.30;;;;;;;20.55;nan;-24388.47;5053096;28;20224;-57
2022/06/03 00:49:04;;;;;;;6.22;3.38;;;;;;;20.63;nan;-24390.69;5051841;28;20230;-57
2022/06/03 00:51:36;;;;;;;5.82;3.95;;;;;;;20.61;nan;-24390.13;5052415;28;20174;-57
2022/06/03 00:54:08;;;;;;;5.80;3.55;;;;;;;20.61;nan;-24390.25;5054755;28;20665;-56
2022/06/03 00:57:03;;;;;;;5.32;3.45;;;;;;;20.37;nan;-24383.47;5052542;28;20236;-57
2022/06/03 00:59:56;;;;;;;7.97;3.83;;;;;;;20.21;nan;-24379.28;5052840;28;20198;-57
2022/06/03 01:02:52;;;;;;;5.70;3.50;;;;;;;20.14;nan;-24377.22;5052484;28;20696;-57
2022/06/03 01:05:32;;;;;;;4.90;3.58;;;;;;;20.06;nan;-24375.00;5051935;28;20666;-57
2022/06/03 01:08:10;;;;;;;5.55;3.60;;;;;;;20.07;nan;-24375.41;5052424;28;20289;-57
2022/06/03 01:10:48;;;;;;;5.50;3.75;;;;;;;20.01;nan;-24373.72;5052994;28;20159;-58
2022/06/03 01:13:19;;;;;;;5.10;3.65;;;;;;;20.08;nan;-24375.69;5052360;28;20224;-57
2022/06/03 01:15:57;;;;;;;6.70;4.07;;;;;;;20.09;nan;-24375.81;5051914;28;20619;-57
2022/06/03 01:18:35;;;;;;;6.25;3.65;;;;;;;20.08;nan;-24375.69;5052426;28;20179;-57
2022/06/03 01:21:06;;;;;;;4.72;3.20;;;;;;;20.22;nan;-24379.56;5052216;28;20190;-57
2022/06/03 01:24:08;;;;;;;7.00;3.05;;;;;;;19.92;nan;-24371.22;5051926;28;20243;-58
2022/06/03 01:27:10;;;;;;;5.60;3.42;;;;;;;19.90;nan;-24370.69;5052542;28;20172;-56
2022/06/03 01:29:44;;;;;;;8.07;4.00;;;;;;;19.77;nan;-24367.06;5057736;28;20273;-56
2022/06/03 01:32:37;;;;;;;5.00;3.50;;;;;;;19.60;nan;-24362.34;5051708;28;20555;-57
2022/06/03 01:35:08;;;;;;;5.13;3.33;;;;;;;19.46;nan;-24358.59;5052164;28;20641;-57
2022/06/03 01:37:46;;;;;;;7.55;3.83;;;;;;;19.67;nan;-24364.28;5050503;28;20207;-57
2022/06/03 01:40:33;;;;;;;4.95;3.38;;;;;;;19.55;nan;-24360.94;5050851;28;20563;-57
2022/06/03 01:44:12;;;;;;;5.00;3.55;;;;;;;19.54;nan;-24360.66;5051897;28;20525;-56
2022/06/03 01:47:06;;;;;;;8.27;3.63;;;;;;;19.43;nan;-24357.75;5009824;28;20207;-59
2022/06/03 01:49:43;;;;;;;5.10;3.45;;;;;;;19.79;nan;-24367.63;5032374;28;20641;-56
2022/06/03 01:52:34;;;;;;;7.40;3.40;;;;;;;19.83;nan;-24368.72;5051289;28;20588;-55
2022/06/03 01:55:36;;;;;;;5.10;3.67;;;;;;;19.92;nan;-24371.22;5051412;28;20255;-56
2022/06/03 01:58:28;;;;;;;6.28;3.30;;;;;;;17.36;nan;-24300.75;5051557;28;20243;-56
2022/06/03 02:00:59;;;;;;;5.28;3.25;;;;;;;19.80;nan;-24367.91;5051441;28;20185;-56
2022/06/03 02:03:58;;;;;;;3.75;3.03;;;;;;;19.97;nan;-24372.50;5051479;28;20194;-56
2022/06/03 02:07:02;;;;;;;5.90;3.75;;;;;;;19.87;nan;-24369.84;5056001;28;20205;-56
2022/06/03 02:09:43;;;;;;;7.20;3.45;;;;;;;19.53;nan;-24360.53;5050495;28;20632;-57
2022/06/03 02:12:21;;;;;;;7.75;3.65;;;;;;;19.86;nan;-24369.56;5051978;28;20646;-57
2022/06/03 02:15:12;;;;;;;7.13;3.33;;;;;;;19.48;nan;-24359.13;5031730;28;20166;-57
2022/06/03 02:18:14;;;;;;;5.90;3.40;;;;;;;19.74;nan;-24366.38;5031340;28;20280;-57
2022/06/03 02:21:01;;;;;;;3.83;2.95;;;;;;;19.74;nan;-24366.22;5031647;28;20175;-57
2022/06/03 02:23:35;;;;;;;3.95;3.25;;;;;;;19.62;nan;-24363.03;5031409;28;20167;-56
2022/06/03 02:26:31;;;;;;;5.47;3.55;;;;;;;19.67;nan;-24364.28;5031571;28;20173;-56
2022/06/03 02:33:13;;;;;;;4.32;3.13;;;;;;;19.27;nan;-24353.28;5031259;28;20347;-57
2022/06/03 02:35:52;;;;;;;9.02;3.85;;;;;;;19.50;nan;-24359.56;5031279;28;20254;-55
2022/06/03 02:38:27;;;;;;;7.50;3.65;;;;;;;19.40;nan;-24357.06;5031457;28;20257;-56
2022/06/03 02:41:01;;;;;;;5.35;3.40;;;;;;;19.45;nan;-24358.16;5031713;28;20213;-56
2022/06/03 02:44:04;;;;;;;5.88;3.90;;;;;;;19.51;nan;-24359.97;5053139;28;20575;-56
2022/06/03 02:46:52;;;;;;;5.63;4.05;;;;;;;19.41;nan;-24357.19;5049836;28;20182;-55
2022/06/03 02:49:37;;;;;;;5.60;3.67;;;;;;;19.44;nan;-24357.88;5054637;28;20275;-57
2022/06/03 02:52:20;;;;;;;7.18;3.80;;;;;;;19.46;nan;-24358.44;5034591;28;20191;-57
2022/06/03 02:55:07;;;;;;;7.95;3.53;;;;;;;19.45;nan;-24358.16;5034813;28;20206;-57
2022/06/03 02:57:57;;;;;;;6.35;3.55;;;;;;;19.62;nan;-24362.91;5034486;28;20272;-57
2022/06/03 03:00:51;;;;;;;6.28;3.63;;;;;;;19.96;nan;-24372.22;5036615;28;20179;-57
2022/06/03 03:03:59;;;;;;;5.82;3.60;;;;;;;20.68;nan;-24392.19;5052107;28;20273;-57
2022/06/03 03:06:31;;;;;;;6.50;4.28;;;;;;;21.21;nan;-24406.63;5057951;28;20293;-57
2022/06/03 03:09:14;;;;;;;8.60;4.10;;;;;;;21.60;nan;-24417.31;5057378;28;20189;-56
2022/06/03 03:11:51;;;;;;;5.82;3.78;;;;;;;22.03;nan;-24429.22;5059385;28;20196;-56
2022/06/03 03:14:44;;;;;;;7.05;4.05;;;;;;;22.94;nan;-24453.97;5058501;28;20302;-56
2022/06/03 03:17:18;;;;;;;8.90;4.00;;;;;;;23.66;nan;-24473.59;5045775;28;20294;-57
2022/06/03 03:19:52;;;;;;;6.78;4.18;;;;;;;24.19;nan;-24488.09;5055828;28;20576;-57
2022/06/03 03:22:27;;;;;;;5.85;3.72;;;;;;;25.33;nan;-24519.22;5055636;28;20209;-57
2022/06/03 03:25:15;;;;;;;6.15;4.00;;;;;;;25.85;nan;-24533.38;5056752;28;20201;-56
2022/06/03 03:28:08;;;;;;;6.07;3.83;;;;;;;26.92;nan;-24562.38;5058494;28;20183;-57
2022/06/03 03:30:44;;;;;;;3.97;3.20;;;;;;;27.54;nan;-24579.25;5057294;28;20193;-57
2022/06/03 03:33:16;;;;;;;4.03;2.92;;;;;;;28.49;nan;-24604.97;5058059;28;21840;-57
2022/06/03 03:36:06;;;;;;;8.77;3.85;;;;;;;29.14;nan;-24622.34;5058011;28;20187;-56
2022/06/03 03:38:47;;;;;;;5.05;3.50;;;;;;;29.66;nan;-24636.53;5058551;28;20213;-59
2022/06/03 03:41:46;;;;;;;5.45;3.58;;;;;;;30.51;nan;-24659.44;5056847;28;20191;-60
2022/06/03 03:44:17;;;;;;;4.63;3.63;;;;;;;31.03;nan;-24673.47;5056966;28;20720;-58
2022/06/03 03:47:01;;;;;;;6.97;4.38;;;;;;;31.51;nan;-24686.41;5055567;28;20198;-57
2022/06/03 03:49:47;;;;;;;7.10;4.28;;;;;;;32.23;nan;-24705.69;5055918;28;20183;-59
2022/06/03 03:52:46;;;;;;;7.28;4.18;;;;;;;32.74;nan;-24719.41;5057973;28;20182;-57
2022/06/03 03:55:49;;;;;;;6.22;4.00;;;;;;;33.15;nan;-24730.25;5057772;28;20246;-56
2022/06/03 03:58:35;;;;;;;7.18;4.13;;;;;;;33.74;nan;-24746.09;5057029;28;20709;-57
2022/06/03 04:01:30;;;;;;;6.72;4.22;;;;;;;34.29;nan;-24760.69;5058214;28;20189;-57
2022/06/03 04:04:21;;;;;;;6.18;3.97;;;;;;;33.91;nan;-24750.56;5047119;28;20201;-57
2022/06/03 04:07:17;;;;;;;4.95;3.50;;;;;;;34.56;nan;-24768.00;5058892;28;20177;-59
2022/06/03 04:10:17;;;;;;;5.95;3.60;;;;;;;34.62;nan;-24769.47;5075133;28;20262;-58
2022/06/03 04:13:22;;;;;;;4.88;3.72;;;;;;;34.57;nan;-24768.41;5060038;28;20289;-57
2022/06/03 04:16:25;;;;;;;5.80;3.92;;;;;;;33.98;nan;-24752.59;5057848;28;20716;-57
2022/06/03 04:19:11;;;;;;;4.82;3.55;;;;;;;34.23;nan;-24759.06;5053993;28;20178;-57
2022/06/03 04:22:06;;;;;;;4.70;3.45;;;;;;;34.64;nan;-24770.03;5037710;28;20170;-57
2022/06/03 04:24:51;;;;;;;4.50;3.40;;;;;;;34.98;nan;-24779.19;5052272;28;20158;-57
2022/06/03 04:27:54;;;;;;;4.60;3.55;;;;;;;35.18;nan;-24784.47;5052305;28;20202;-57
2022/06/03 04:30:40;;;;;;;7.10;3.75;;;;;;;35.30;nan;-24787.84;5053242;28;20341;-57
2022/06/03 04:33:24;;;;;;;7.93;3.95;;;;;;;35.51;nan;-24793.38;5053619;28;20181;-57
2022/06/03 04:36:26;;;;;;;6.18;3.72;;;;;;;35.41;nan;-24790.81;5052333;28;20178;-56
2022/06/03 04:39:36;;;;;;;4.43;3.78;;;;;;;35.47;nan;-24792.28;5052469;28;20280;-56
2022/06/03 04:42:39;;;;;;;5.03;3.80;;;;;;;35.26;nan;-24786.63;5051917;28;20173;-57
2022/06/03 04:45:04;;;;;;;5.97;4.00;;;;;;;35.13;nan;-24783.25;5052394;28;20233;-57
2022/06/03 04:47:44;;;;;;;8.65;3.67;;;;;;;35.10;nan;-24782.44;5052437;28;20268;-57
2022/06/03 04:50:28;;;;;;;4.93;3.58;;;;;;;34.77;nan;-24773.66;5051890;28;20251;-56
2022/06/03 04:53:30;;;;;;;7.07;3.67;;;;;;;34.62;nan;-24769.63;5051919;28;20190;-56
2022/06/03 04:56:19;;;;;;;5.13;3.45;;;;;;;34.60;nan;-24769.22;5051787;28;20221;-55
2022/06/03 04:58:53;;;;;;;5.63;3.63;;;;;;;34.03;nan;-24753.81;5051991;28;20550;-56
2022/06/03 05:01:28;;;;;;;4.25;3.13;;;;;;;33.41;nan;-24737.16;5051448;28;20192;-56
2022/06/03 05:04:27;;;;;;;4.22;3.38;;;;;;;33.20;nan;-24731.72;5051664;28;20177;-56
2022/06/03 05:06:58;;;;;;;6.03;3.83;;;;;;;33.53;nan;-24740.53;5050358;28;20189;-56
2022/06/03 05:09:35;;;;;;;5.05;3.50;;;;;;;33.18;nan;-24731.06;5051265;28;20594;-56
2022/06/03 05:12:13;;;;;;;4.13;3.28;;;;;;;32.96;nan;-24725.22;5051933;28;20178;-57
2022/06/03 05:14:53;;;;;;;4.72;3.03;;;;;;;33.08;nan;-24728.47;5083323;28;20576;-61
2022/06/03 05:17:30;;;;;;;4.68;3.45;;;;;;;32.60;nan;-24715.47;5050996;28;20645;-57
2022/06/03 05:20:05;;;;;;;3.92;3.30;;;;;;;32.65;nan;-24716.97;5049658;28;20177;-56
2022/06/03 05:22:52;;;;;;;6.13;3.47;;;;;;;32.71;nan;-24718.44;5051497;28;20177;-57
2022/06/03 05:25:48;;;;;;;8.02;3.83;;;;;;;32.77;nan;-24720.22;5032015;28;20213;-56
2022/06/03 05:28:32;;;;;;;4.85;3.20;;;;;;;32.99;nan;-24725.91;5031964;28;20250;-57
2022/06/03 05:31:12;;;;;;;4.40;3.30;;;;;;;32.93;nan;-24724.28;5031715;28;20167;-56
2022/06/03 05:34:05;;;;;;;9.43;3.10;;;;;;;32.07;nan;-24701.34;5042774;28;20177;-57
2022/06/03 05:36:40;;;;;;;4.80;3.25;;;;;;;31.65;nan;-24689.94;5044071;28;20193;-56
2022/06/03 05:39:25;;;;;;;10.48;3.45;;;;;;;31.26;nan;-24679.59;5051073;28;20699;-56
2022/06/03 05:42:23;;;;;;;5.45;2.45;;;;;;;30.86;nan;-24668.72;5050976;28;20186;-57
2022/06/03 05:45:15;;;;;;;6.15;3.22;;;;;;;30.19;nan;-24650.72;5051121;28;20170;-57
2022/06/03 05:47:59;;;;;;;7.90;4.03;;;;;;;29.48;nan;-24631.63;5050421;28;20181;-57
2022/06/03 05:50:46;;;;;;;7.55;4.78;;;;;;;29.47;nan;-24631.34;5053465;28;20270;-57
2022/06/03 05:53:29;;;;;;;5.70;4.13;;;;;;;29.20;nan;-24624.13;5051141;28;20281;-57
2022/06/03 05:56:23;;;;;;;7.53;3.97;;;;;;;28.55;nan;-24606.47;5055602;28;20713;-58
2022/06/03 05:59:11;;;;;;;6.38;4.20;;;;;;;28.38;nan;-24601.84;5050033;28;20262;-57
2022/06/03 06:02:07;;;;;;;6.45;3.55;;;;;;;28.26;nan;-24598.53;5050089;28;20186;-56
2022/06/03 06:04:54;;;;;;;8.18;4.07;;;;;;;27.89;nan;-24588.69;5051545;28;20186;-57
2022/06/03 06:07:41;;;;;;;7.68;3.65;;;;;;;28.11;nan;-24594.72;5053336;28;20182;-57
2022/06/03 06:10:28;;;;;;;6.10;3.45;;;;;;;27.74;nan;-24584.59;5047837;28;20193;-57
2022/06/03 06:13:30;;;;;;;4.85;3.60;;;;;;;27.99;nan;-24591.28;5051276;28;20186;-57
2022/06/03 06:16:23;;;;;;;4.75;3.67;;;;;;;28.00;nan;-24591.56;5050994;28;20213;-57
2022/06/03 06:19:13;;;;;;;6.03;3.58;;;;;;;28.21;nan;-24597.31;5050681;28;20190;-56
2022/06/03 06:21:51;;;;;;;5.63;2.97;;;;;;;27.83;nan;-24587.03;5049779;28;20206;-57
2022/06/03 06:24:36;;;;;;;8.52;3.95;;;;;;;28.07;nan;-24593.63;5038302;28;20244;-57
2022/06/03 06:27:28;;;;;;;4.50;3.40;;;;;;;28.06;nan;-24593.34;5058711;28;20197;-57
2022/06/03 06:29:59;;;;;;;4.15;3.30;;;;;;;28.05;nan;-24593.06;5053530;28;20198;-56
2022/06/03 06:33:06;;;;;;;5.45;3.72;;;;;;;27.90;nan;-24588.81;5059785;28;20285;-57
2022/06/03 06:35:53;;;;;;;6.82;3.65;;;;;;;28.54;nan;-24606.22;5055835;28;20194;-57
2022/06/03 06:38:37;;;;;;;4.40;3.25;;;;;;;28.09;nan;-24594.16;5047822;28;20178;-57
2022/06/03 06:41:46;;;;;;;5.20;3.55;;;;;;;28.59;nan;-24607.44;5053347;28;20222;-57
2022/06/03 06:44:24;;;;;;;4.70;3.40;;;;;;;28.78;nan;-24612.78;5043861;28;20190;-57
2022/06/03 06:47:16;;;;;;;4.78;3.55;;;;;;;28.59;nan;-24607.44;5054332;28;20171;-56
2022/06/03 06:50:09;;;;;;;4.35;3.33;;;;;;;28.58;nan;-24607.28;4764996;28;20874;-58
2022/06/03 06:52:52;;;;;;;6.55;3.20;;;;;;;28.02;nan;-24592.13;5054185;28;20536;-57
2022/06/03 06:55:20;;;;;;;6.60;3.67;;;;;;;28.40;nan;-24602.50;5054148;28;20308;-57
2022/06/03 06:57:49;;;;;;;4.47;3.08;;;;;;;28.75;nan;-24611.97;5054390;28;20676;-57
2022/06/03 07:00:17;;;;;;;4.72;3.92;;;;;;;29.02;nan;-24619.19;5054595;28;20249;-57
2022/06/03 07:02:50;;;;;;;4.82;3.42;;;;;;;29.27;nan;-24625.88;5054003;28;20653;-57
2022/06/03 07:05:44;;;;;;;4.75;3.58;;;;;;;29.37;nan;-24628.75;5054161;28;20257;-57
2022/06/03 07:08:19;;;;;;;5.40;3.70;;;;;;;28.98;nan;-24618.25;5054304;28;20196;-57
2022/06/03 07:10:49;;;;;;;4.63;3.40;;;;;;;28.64;nan;-24608.94;5053899;28;20170;-57
2022/06/03 07:13:38;;;;;;;4.30;3.35;;;;;;;29.10;nan;-24621.25;5052740;28;20174;-57
2022/06/03 07:16:15;;;;;;;10.68;3.55;;;;;;;29.15;nan;-24622.59;5048612;28;20209;-58
2022/06/03 07:21:57;;;;;;;4.90;3.22;;;;;;;29.33;nan;-24627.53;5053557;28;20171;-57
2022/06/03 07:24:52;;;;;;;5.45;3.45;;;;;;;29.26;nan;-24625.63;5033330;28;20728;-57
2022/06/03 07:28:08;;;;;;;7.95;3.85;;;;;;;29.34;nan;-24627.81;5032491;28;20195;-57
2022/06/03 07:30:42;;;;;;;4.50;3.55;;;;;;;27.35;nan;-24573.88;5031175;28;20273;-57
2022/06/03 07:33:57;;;;;;;5.63;3.55;;;;;;;29.38;nan;-24629.03;5013713;28;20178;-57
2022/06/03 07:36:31;;;;;;;5.28;4.13;;;;;;;29.56;nan;-24633.66;4973522;28;20210;-57
2022/06/03 07:39:21;;;;;;;4.82;3.75;;;;;;;29.39;nan;-24629.16;5032635;28;20226;-57
2022/06/03 07:41:52;;;;;;;4.82;3.58;;;;;;;29.53;nan;-24633.00;5033260;28;20162;-57
2022/06/03 07:44:54;;;;;;;7.82;3.65;;;;;;;29.66;nan;-24636.53;5048328;28;20175;-57
2022/06/03 07:47:20;;;;;;;5.40;3.40;;;;;;;29.74;nan;-24638.59;5064784;28;20220;-57
2022/06/03 07:49:54;;;;;;;7.07;4.50;;;;;;;29.67;nan;-24636.81;5033007;28;20611;-57
2022/06/03 07:53:01;;;;;;;7.65;4.25;;;;;;;29.90;nan;-24642.81;5033030;28;20170;-58
2022/06/03 07:55:30;;;;;;;4.95;3.72;;;;;;;29.81;nan;-24640.50;5031904;28;20233;-57
2022/06/03 07:58:07;;;;;;;6.85;4.00;;;;;;;29.22;nan;-24624.66;5032899;28;20213;-57
2022/06/03 08:00:35;;;;;;;4.65;3.28;;;;;;;29.76;nan;-24639.28;5033244;28;20174;-57
2022/06/03 08:03:24;;;;;;;6.70;4.07;;;;;;;29.95;nan;-24644.19;5033291;28;20266;-57
2022/06/03 08:06:02;;;;;;;10.05;3.92;;;;;;;30.06;nan;-24647.19;5055409;28;20185;-57
2022/06/03 08:11:26;;;;;;;7.10;4.03;;;;;;;29.87;nan;-24642.13;5059403;28;20270;-57
2022/06/03 08:13:54;;;;;;;5.53;3.65;;;;;;;30.35;nan;-24655.09;5052678;28;20179;-57
2022/06/03 08:16:33;;;;;;;5.53;3.70;;;;;;;30.63;nan;-24662.59;5052477;28;20236;-58
2022/06/03 08:19:05;;;;;;;11.43;4.50;;;;;;;30.40;nan;-24656.44;5049707;28;20178;-57
2022/06/03 08:21:38;;;;;;;5.72;3.30;;;;;;;30.13;nan;-24649.09;5052371;28;20566;-58
2022/06/03 08:24:06;;;;;;;5.30;3.20;;;;;;;30.23;nan;-24651.81;5052357;28;20253;-57
2022/06/03 08:26:33;;;;;;;5.65;3.97;;;;;;;30.38;nan;-24655.91;5052075;28;20287;-57
2022/06/03 08:29:23;;;;;;;5.00;3.95;;;;;;;30.67;nan;-24663.81;5052537;28;20182;-57
2022/06/03 08:31:50;;;;;;;4.47;3.58;;;;;;;30.26;nan;-24652.78;5052784;28;20164;-57
2022/06/03 08:34:24;;;;;;;7.82;4.05;;;;;;;30.50;nan;-24659.03;5052552;28;20174;-57
2022/06/03 08:36:51;;;;;;;6.15;3.22;;;;;;;24.10;nan;-24485.59;5051275;28;20327;-57
2022/06/03 08:39:22;;;;;;;9.05;3.38;;;;;;;30.85;nan;-24668.56;5053478;28;20265;-57
2022/06/03 08:42:06;;;;;;;5.15;3.45;;;;;;;31.21;nan;-24678.09;5053265;28;20178;-57
2022/06/03 08:44:49;;;;;;;5.03;3.50;;;;;;;31.41;nan;-24683.53;5052244;28;20170;-57
2022/06/03 08:47:23;;;;;;;5.05;3.63;;;;;;;31.33;nan;-24681.38;5052373;28;20162;-57
2022/06/03 08:50:23;;;;;;;4.22;3.33;;;;;;;31.30;nan;-24680.56;5051986;28;20598;-57
2022/06/03 08:52:58;;;;;;;3.95;3.15;;;;;;;30.78;nan;-24666.66;5050549;28;20186;-57
2022/06/03 08:55:49;;;;;;;4.45;3.30;;;;;;;30.54;nan;-24660.13;5052500;28;20295;-57
2022/06/03 08:58:24;;;;;;;5.18;3.35;;;;;;;30.83;nan;-24667.88;5049558;28;20213;-56
2022/06/03 09:01:29;;;;;;;5.30;3.75;;;;;;;31.08;nan;-24674.84;5051149;28;20271;-56
2022/06/03 09:04:04;;;;;;;3.53;2.83;;;;;;;30.98;nan;-24672.09;5050451;28;20162;-58
2022/06/03 09:06:38;;;;;;;6.03;4.20;;;;;;;31.13;nan;-24676.19;5051328;28;20169;-56
2022/06/03 09:09:28;;;;;;;4.20;3.55;;;;;;;30.78;nan;-24666.53;5051529;28;20169;-57
2022/06/03 09:12:22;;;;;;;6.20;3.40;;;;;;;31.00;nan;-24672.53;5051528;28;20668;-58
2022/06/03 09:14:50;;;;;;;5.50;3.97;;;;;;;31.05;nan;-24674.03;5043377;28;20198;-59
2022/06/03 09:17:54;;;;;;;6.55;4.47;;;;;;;31.35;nan;-24681.91;5050548;28;20201;-58
2022/06/03 09:20:26;;;;;;;9.45;5.50;;;;;;;31.52;nan;-24686.66;5051563;28;20228;-58
2022/06/03 09:22:59;;;;;;;8.48;5.65;;;;;;;31.21;nan;-24678.25;5051824;28;20174;-57
2022/06/03 09:25:25;;;;;;;6.13;3.90;;;;;;;31.24;nan;-24678.91;5051880;28;20174;-57
2022/06/03 09:27:51;;;;;;;10.07;5.53;;;;;;;31.40;nan;-24683.41;5051452;28;20174;-57
2022/06/03 09:30:27;;;;;;;8.63;5.13;;;;;;;31.57;nan;-24687.91;5051556;28;20178;-57
2022/06/03 09:32:55;;;;;;;6.25;3.97;;;;;;;30.87;nan;-24668.97;5051243;28;20226;-57
2022/06/03 09:35:26;;;;;;;7.35;4.82;;;;;;;31.09;nan;-24675.09;5050466;28;20178;-57
2022/06/03 09:37:56;;;;;;;5.10;3.58;;;;;;;30.77;nan;-24666.25;5050875;28;20224;-57
2022/06/03 09:40:28;;;;;;;4.18;3.17;;;;;;;30.88;nan;-24669.25;5051217;28;20315;-57
2022/06/03 09:43:24;;;;;;;6.25;3.78;;;;;;;31.20;nan;-24677.97;5051096;28;20491;-57
2022/06/03 09:45:55;;;;;;;7.82;4.88;;;;;;;31.08;nan;-24674.69;5048494;28;20190;-57
2022/06/03 09:48:28;;;;;;;7.28;3.35;;;;;;;31.28;nan;-24680.00;5051246;28;20169;-57
2022/06/03 09:50:57;;;;;;;4.00;3.20;;;;;;;30.96;nan;-24671.56;5051221;28;20265;-57
2022/06/03 09:53:30;;;;;;;6.22;4.03;;;;;;;31.96;nan;-24698.34;5050871;28;20257;-57
2022/06/03 09:56:04;;;;;;;6.53;4.57;;;;;;;32.29;nan;-24707.31;5050558;28;20259;-57
2022/06/03 09:58:32;;;;;;;8.07;4.43;;;;;;;32.18;nan;-24704.19;5049750;28;20178;-57
2022/06/03 10:00:58;;;;;;;6.68;4.20;;;;;;;32.23;nan;-24705.69;5048605;28;20315;-57
2022/06/03 10:03:26;;;;;;;4.15;3.17;;;;;;;32.31;nan;-24707.72;5051174;28;20182;-57
2022/06/03 10:05:55;;;;;;;6.13;4.20;;;;;;;31.96;nan;-24698.50;5050667;28;20235;-56
2022/06/03 10:08:24;;;;;;;5.93;4.50;;;;;;;32.64;nan;-24716.69;5050814;28;20174;-57
2022/06/03 10:13:39;;;;;;;6.28;3.40;;;;;;;32.47;nan;-24711.94;5051044;28;20681;-58
2022/06/03 10:16:07;;;;;;;5.18;3.33;;;;;;;32.70;nan;-24718.19;5050990;28;20177;-57
2022/06/03 10:18:38;;;;;;;7.13;3.97;;;;;;;32.48;nan;-24712.19;5051354;28;20549;-58
2022/06/03 10:21:06;;;;;;;3.53;2.55;;;;;;;32.60;nan;-24715.47;5051224;28;20291;-58
2022/06/03 10:23:36;;;;;;;4.32;3.28;;;;;;;32.39;nan;-24709.91;5051041;28;20245;-58
2022/06/03 10:26:04;;;;;;;6.82;3.50;;;;;;;32.47;nan;-24711.94;5051255;28;20162;-58
2022/06/03 10:28:39;;;;;;;4.18;3.20;;;;;;;32.15;nan;-24703.53;5050833;28;20170;-58
2022/06/03 10:31:07;;;;;;;4.50;3.33;;;;;;;32.13;nan;-24702.84;5050654;28;20196;-58
2022/06/03 10:33:33;;;;;;;4.47;3.42;;;;;;;32.27;nan;-24706.66;5050700;28;20565;-57
2022/06/03 10:36:01;;;;;;;4.43;2.70;;;;;;;32.30;nan;-24707.47;5050520;28;20166;-58
2022/06/03 10:38:30;;;;;;;4.00;2.42;;;;;;;32.33;nan;-24708.41;5050464;28;20182;-57
2022/06/03 10:40:56;;;;;;;3.90;2.92;;;;;;;32.51;nan;-24713.16;5050749;28;20208;-57
2022/06/03 10:43:31;;;;;;;5.43;2.97;;;;;;;32.88;nan;-24723.06;5050563;28;20235;-58
2022/06/03 10:46:11;;;;;;;4.55;2.80;;;;;;;32.82;nan;-24721.56;5052311;28;20182;-57
2022/06/03 10:48:37;;;;;;;4.85;2.80;;;;;;;33.11;nan;-24729.28;5050593;28;20178;-57
2022/06/03 11:02:43;;;;;;;4.40;2.53;;;;;;;33.18;nan;-24731.19;5050942;28;20213;-58
2022/06/03 11:05:10;;;;;;;4.57;2.58;;;;;;;33.32;nan;-24734.72;5050239;28;20189;-58
2022/06/03 11:07:36;;;;;;;3.38;2.80;;;;;;;33.20;nan;-24731.72;5050950;28;20178;-58
2022/06/03 11:10:15;;;;;;;4.03;2.90;;;;;;;33.58;nan;-24741.75;5054377;28;20178;-58
2022/06/03 11:12:43;;;;;;;5.22;2.95;;;;;;;33.14;nan;-24729.97;5054388;28;20182;-58
2022/06/03 11:15:33;;;;;;;5.13;3.10;;;;;;;33.43;nan;-24737.69;5054152;28;20189;-58
2022/06/03 11:18:19;;;;;;;2.90;2.60;;;;;;;33.20;nan;-24731.59;5054130;28;20284;-58
2022/06/03 11:20:50;;;;;;;4.43;2.88;;;;;;;32.20;nan;-24704.88;5053800;28;20170;-58
2022/06/03 11:23:17;;;;;;;4.90;2.95;;;;;;;32.71;nan;-24718.44;5053921;28;20174;-56
2022/06/03 11:25:56;;;;;;;5.50;2.88;;;;;;;32.80;nan;-24720.88;5053612;28;20250;-57
2022/06/03 11:28:54;;;;;;;3.33;2.80;;;;;;;32.88;nan;-24723.19;5053087;28;20228;-57
2022/06/03 11:31:24;;;;;;;3.70;2.70;;;;;;;33.23;nan;-24732.56;5052858;28;20243;-57
2022/06/03 11:34:01;;;;;;;3.35;2.80;;;;;;;33.26;nan;-24733.34;5059201;28;20316;-58
2022/06/03 11:36:38;;;;;;;4.70;3.10;;;;;;;33.37;nan;-24736.06;5053793;28;20208;-58
2022/06/03 11:39:14;;;;;;;4.18;2.70;;;;;;;33.36;nan;-24735.78;5054240;28;20194;-60
2022/06/03 11:41:46;;;;;;;3.38;2.38;;;;;;;33.60;nan;-24742.44;5054425;28;20186;-58
2022/06/03 11:44:18;;;;;;;3.47;2.80;;;;;;;33.62;nan;-24742.84;5054232;28;20174;-58
2022/06/03 11:46:54;;;;;;;3.70;2.78;;;;;;;33.37;nan;-24736.06;5053867;28;20178;-58
2022/06/03 11:49:22;;;;;;;4.97;2.60;;;;;;;33.63;nan;-24743.09;5054199;28;20169;-58
2022/06/03 11:51:49;;;;;;;6.10;2.90;;;;;;;33.63;nan;-24743.25;5053684;28;20186;-58
2022/06/03 11:54:17;;;;;;;3.75;2.95;;;;;;;33.74;nan;-24746.09;5053656;28;20166;-57
2022/06/03 11:56:45;;;;;;;4.97;2.35;;;;;;;33.78;nan;-24747.16;5053863;28;20314;-57
2022/06/03 11:59:19;;;;;;;4.38;2.90;;;;;;;34.02;nan;-24753.66;5053589;28;20170;-57
2022/06/03 12:01:50;;;;;;;4.90;2.80;;;;;;;34.52;nan;-24767.03;5053708;28;20610;-57
2022/06/03 12:04:19;;;;;;;3.75;2.78;;;;;;;34.44;nan;-24764.75;5054286;28;20260;-57
2022/06/03 12:06:53;;;;;;;3.33;2.50;;;;;;;34.59;nan;-24768.94;5053583;28;20166;-57
2022/06/03 12:09:49;;;;;;;3.28;2.55;;;;;;;34.55;nan;-24767.84;5053886;28;20315;-57
2022/06/03 12:15:38;;;;;;;2.72;2.30;;;;;;;34.60;nan;-24769.06;5050986;28;20709;-57
2022/06/03 12:18:06;;;;;;;2.88;2.42;;;;;;;35.00;nan;-24779.75;5051648;28;20228;-58
2022/06/03 12:20:31;;;;;;;2.97;2.42;;;;;;;35.31;nan;-24788.13;5053483;28;20272;-57
2022/06/03 12:23:12;;;;;;;2.78;2.45;;;;;;;35.27;nan;-24787.03;5053040;28;20257;-56
2022/06/03 12:25:37;;;;;;;3.95;2.70;;;;;;;35.26;nan;-24786.63;5053240;28;20247;-58
2022/06/03 12:28:05;;;;;;;3.85;2.95;;;;;;;35.46;nan;-24792.03;5053308;28;20163;-58
2022/06/03 12:30:42;;;;;;;3.28;2.67;;;;;;;35.17;nan;-24784.19;5051609;28;20621;-58
2022/06/03 12:33:20;;;;;;;3.83;2.53;;;;;;;34.85;nan;-24775.69;5053684;28;20211;-58
2022/06/03 12:35:48;;;;;;;3.13;2.60;;;;;;;34.52;nan;-24766.91;5053433;28;20182;-57
2022/06/03 12:38:20;;;;;;;4.50;2.70;;;;;;;33.52;nan;-24740.25;5052904;28;20250;-57
2022/06/03 12:40:54;;;;;;;3.65;2.90;;;;;;;33.95;nan;-24751.78;5053115;28;20162;-58
2022/06/03 12:43:28;;;;;;;4.80;2.85;;;;;;;33.67;nan;-24744.19;5052859;28;20174;-57
2022/06/03 12:46:09;;;;;;;5.78;2.97;;;;;;;33.41;nan;-24737.28;5052889;28;20186;-57
2022/06/03 12:48:44;;;;;;;6.18;3.08;;;;;;;33.10;nan;-24728.88;5052730;28;20617;-57
2022/06/03 12:51:31;;;;;;;3.72;2.65;;;;;;;33.27;nan;-24733.63;5052325;28;20676;-57
2022/06/03 12:54:31;;;;;;;4.65;2.70;;;;;;;33.42;nan;-24737.56;5052876;28;20166;-58
2022/06/03 12:57:08;;;;;;;4.30;3.10;;;;;;;33.43;nan;-24737.69;5050626;28;20236;-57
2022/06/03 12:59:52;;;;;;;4.65;3.10;;;;;;;33.59;nan;-24742.03;5052491;28;20548;-57
2022/06/03 13:02:21;;;;;;;7.05;3.13;;;;;;;33.32;nan;-24734.72;5052574;28;20265;-57
2022/06/03 13:04:52;;;;;;;5.55;3.33;;;;;;;33.78;nan;-24747.16;5054235;28;20273;-57
2022/06/03 13:07:27;;;;;;;4.50;3.50;;;;;;;34.09;nan;-24755.56;5052338;28;20243;-57
2022/06/03 13:10:01;;;;;;;4.10;3.10;;;;;;;33.84;nan;-24748.78;5032569;28;20403;-57
2022/06/03 13:12:46;;;;;;;4.85;3.50;;;;;;;33.46;nan;-24738.50;5039001;28;20181;-57
2022/06/03 13:15:20;;;;;;;4.95;3.10;;;;;;;33.03;nan;-24726.97;5052344;28;20356;-57
2022/06/03 13:18:10;;;;;;;3.60;2.90;;;;;;;32.69;nan;-24717.91;5051857;28;20554;-58